Time;durP1;ratioP1;P1;durP2;ratioP2;P2;SDS_P1;SDS_P2;PMS_P1;PMS_P2;Temp;Humidity;BMP_temperature;BMP_pressure;BME280_temperature;BME280_humidity;BME280_pressure;Samples;Min_cycle;Max_cycle;Signal;HPM_P1;HPM_P2
2022/11/06 00:00:20;;;;;;;;;;;10.10;99.90;;;;;;5073924;28;19928;-74
2022/11/06 00:02:46;;;;;;;;;;;10.10;99.90;;;;;;5102012;28;19955;-72
2022/11/06 00:07:56;;;;;;;;;;;10.10;99.90;;;;;;5073051;28;20211;-73
2022/11/06 00:10:21;;;;;;;;;;;10.10;99.90;;;;;;5071483;28;19912;-72
2022/11/06 00:12:47;;;;;;;;;;;10.10;99.90;;;;;;5073020;28;19918;-72
2022/11/06 00:15:13;;;;;;;;;;;10.10;99.90;;;;;;5073647;28;20003;-72
2022/11/06 00:17:39;;;;;;;;;;;10.10;99.90;;;;;;5074859;28;19912;-72
2022/11/06 00:20:05;;;;;;;;;;;10.10;99.90;;;;;;5075491;28;19916;-73
2022/11/06 00:22:34;;;;;;;;;;;10.20;99.90;;;;;;5073907;28;20007;-73
2022/11/06 00:25:00;;;;;;;;;;;10.20;99.90;;;;;;5078273;28;19916;-73
2022/11/06 00:27:26;;;;;;;;;;;10.20;99.90;;;;;;5074062;28;20012;-72
2022/11/06 00:29:51;;;;;;;;;;;10.20;99.90;;;;;;5074731;28;19920;-73
2022/11/06 00:32:17;;;;;;;;;;;10.20;99.90;;;;;;5073835;28;20315;-74
2022/11/06 00:34:42;;;;;;;;;;;10.10;99.90;;;;;;5072675;28;19950;-73
2022/11/06 00:37:08;;;;;;;;;;;10.20;99.90;;;;;;5075075;28;19919;-73
2022/11/06 00:39:33;;;;;;;;;;;10.20;99.90;;;;;;5074370;28;20318;-72
2022/11/06 00:41:59;;;;;;;;;;;10.20;99.90;;;;;;5064859;28;20223;-76
2022/11/06 00:44:25;;;;;;;;;;;10.20;99.90;;;;;;5074650;28;19966;-73
2022/11/06 00:46:50;;;;;;;;;;;10.20;99.90;;;;;;5073431;28;19920;-72
2022/11/06 00:49:16;;;;;;;;;;;10.20;99.90;;;;;;5073948;28;19966;-72
2022/11/06 00:51:41;;;;;;;;;;;10.20;99.90;;;;;;5074261;28;19913;-73
2022/11/06 00:54:09;;;;;;;;;;;10.20;99.90;;;;;;5075060;28;19912;-72
2022/11/06 00:56:34;;;;;;;;;;;10.10;99.90;;;;;;5072761;28;19913;-73
2022/11/06 00:59:02;;;;;;;;;;;10.20;99.90;;;;;;5072848;28;20219;-72
2022/11/06 01:01:29;;;;;;;;;;;10.20;99.90;;;;;;5073711;28;19948;-72
2022/11/06 01:04:14;;;;;;;;;;;10.20;99.90;;;;;;5072739;28;19961;-72
2022/11/06 01:06:44;;;;;;;;;;;10.20;99.90;;;;;;5074196;28;19917;-73
2022/11/06 01:09:12;;;;;;;;;;;10.20;99.90;;;;;;5073645;28;20219;-72
2022/11/06 01:11:42;;;;;;;;;;;10.20;99.90;;;;;;5066682;28;19917;-72
2022/11/06 01:14:09;;;;;;;;;;;10.20;99.90;;;;;;5069847;28;19912;-73
2022/11/06 01:16:35;;;;;;;;;;;10.20;99.90;;;;;;5065942;28;19989;-72
2022/11/06 01:19:00;;;;;;;;;;;10.30;99.90;;;;;;5070106;28;20327;-73
2022/11/06 01:21:28;;;;;;;;;;;10.30;99.90;;;;;;5068567;28;20010;-72
2022/11/06 01:23:55;;;;;;;;;;;10.20;99.90;;;;;;5074240;28;20343;-72
2022/11/06 01:26:21;;;;;;;;;;;10.30;99.90;;;;;;5074174;28;19958;-74
2022/11/06 01:28:47;;;;;;;;;;;10.30;99.90;;;;;;5073412;28;20484;-73
2022/11/06 01:31:14;;;;;;;;;;;10.30;99.90;;;;;;5074078;28;19917;-72
2022/11/06 01:33:40;;;;;;;;;;;10.30;99.90;;;;;;5072148;28;20258;-72
2022/11/06 01:36:08;;;;;;;;;;;10.30;99.90;;;;;;5104170;28;19920;-72
2022/11/06 01:38:33;;;;;;;;;;;10.30;99.90;;;;;;5072929;28;20714;-73
2022/11/06 01:40:59;;;;;;;;;;;10.30;99.90;;;;;;5058539;28;19921;-72
2022/11/06 01:43:43;;;;;;;;;;;10.20;99.90;;;;;;5069163;28;19966;-72
2022/11/06 01:46:09;;;;;;;;;;;10.20;99.90;;;;;;5058744;28;20317;-72
2022/11/06 01:48:35;;;;;;;;;;;10.20;99.90;;;;;;5043054;28;20312;-73
2022/11/06 01:51:01;;;;;;;;;;;10.10;99.90;;;;;;5061632;28;19921;-73
2022/11/06 01:53:27;;;;;;;;;;;10.10;99.90;;;;;;5061879;28;20291;-72
2022/11/06 01:55:58;;;;;;;;;;;10.10;99.90;;;;;;5039995;28;19913;-74
2022/11/06 01:58:25;;;;;;;;;;;10.10;99.90;;;;;;5064005;28;19913;-74
2022/11/06 02:00:51;;;;;;;;;;;10.10;99.90;;;;;;5057800;28;19924;-75
2022/11/06 02:03:17;;;;;;;;;;;10.00;99.90;;;;;;5046067;28;19938;-75
2022/11/06 02:05:43;;;;;;;;;;;10.00;99.90;;;;;;5060135;28;19908;-75
2022/11/06 02:08:10;;;;;;;;;;;10.00;99.90;;;;;;5055301;28;19913;-75
2022/11/06 02:10:36;;;;;;;;;;;10.00;99.90;;;;;;5049921;28;19917;-74
2022/11/06 02:13:02;;;;;;;;;;;10.00;99.90;;;;;;5058280;28;20201;-74
2022/11/06 02:15:37;;;;;;;;;;;10.00;99.90;;;;;;5055107;28;19917;-76
2022/11/06 02:18:21;;;;;;;;;;;10.00;99.90;;;;;;5073268;28;19953;-74
2022/11/06 02:21:05;;;;;;;;;;;10.00;99.90;;;;;;5056611;28;19963;-75
2022/11/06 02:23:34;;;;;;;;;;;10.00;99.90;;;;;;5058243;28;19916;-75
2022/11/06 02:26:12;;;;;;;;;;;10.00;99.90;;;;;;5063629;28;19971;-75
2022/11/06 02:28:40;;;;;;;;;;;10.00;99.90;;;;;;5059793;28;19909;-76
2022/11/06 02:31:10;;;;;;;;;;;10.00;99.90;;;;;;5072812;28;19923;-74
2022/11/06 02:33:37;;;;;;;;;;;10.00;99.90;;;;;;5045658;28;19913;-75
2022/11/06 02:36:11;;;;;;;;;;;9.90;99.90;;;;;;5062314;28;20223;-73
2022/11/06 02:38:39;;;;;;;;;;;9.90;99.90;;;;;;5060279;28;19916;-75
2022/11/06 02:41:07;;;;;;;;;;;9.90;99.90;;;;;;5073223;28;19912;-76
2022/11/06 02:43:38;;;;;;;;;;;9.90;99.90;;;;;;5076702;28;19912;-76
2022/11/06 02:46:10;;;;;;;;;;;9.90;99.90;;;;;;5071149;28;19920;-74
2022/11/06 02:48:57;;;;;;;;;;;9.90;99.90;;;;;;5064124;28;19924;-75
2022/11/06 02:51:25;;;;;;;;;;;9.90;99.90;;;;;;5077349;28;19920;-75
2022/11/06 02:53:51;;;;;;;;;;;9.90;99.90;;;;;;5108910;28;19920;-75
2022/11/06 02:56:19;;;;;;;;;;;9.90;99.90;;;;;;5076923;28;19913;-75
2022/11/06 02:58:47;;;;;;;;;;;9.90;99.90;;;;;;5076387;28;19913;-74
2022/11/06 03:01:20;;;;;;;;;;;9.90;99.90;;;;;;5076191;28;20322;-75
2022/11/06 03:03:49;;;;;;;;;;;9.90;99.90;;;;;;5065704;28;20212;-75
2022/11/06 03:06:35;;;;;;;;;;;9.90;99.90;;;;;;5073252;28;20061;-86
2022/11/06 03:09:03;;;;;;;;;;;9.90;99.90;;;;;;5078744;28;19920;-74
2022/11/06 03:11:34;;;;;;;;;;;9.90;99.90;;;;;;5074349;28;20300;-74
2022/11/06 03:14:32;;;;;;;;;;;9.90;99.90;;;;;;5073360;28;19926;-74
2022/11/06 03:16:59;;;;;;;;;;;9.90;99.90;;;;;;5051439;28;20514;-76
2022/11/06 03:19:43;;;;;;;;;;;9.90;99.90;;;;;;5105016;27;19923;-75
2022/11/06 03:22:11;;;;;;;;;;;9.90;99.90;;;;;;5060153;28;19966;-76
2022/11/06 03:24:55;;;;;;;;;;;9.90;99.90;;;;;;5075188;28;19912;-75
2022/11/06 03:27:31;;;;;;;;;;;9.90;99.90;;;;;;5075411;28;19921;-75
2022/11/06 03:30:15;;;;;;;;;;;9.90;99.90;;;;;;5076369;28;19912;-75
2022/11/06 03:32:43;;;;;;;;;;;9.90;99.90;;;;;;5075651;28;19917;-75
2022/11/06 03:35:09;;;;;;;;;;;9.80;99.90;;;;;;5075526;28;19913;-74
2022/11/06 03:37:57;;;;;;;;;;;9.90;99.90;;;;;;5073486;28;19912;-76
2022/11/06 03:40:26;;;;;;;;;;;9.80;99.90;;;;;;5073442;28;19920;-76
2022/11/06 03:42:53;;;;;;;;;;;9.80;99.90;;;;;;5076411;28;19908;-75
2022/11/06 03:45:20;;;;;;;;;;;9.80;99.90;;;;;;5075306;28;19912;-75
2022/11/06 03:47:56;;;;;;;;;;;9.90;99.90;;;;;;5075330;28;19928;-80
2022/11/06 03:50:24;;;;;;;;;;;9.90;99.90;;;;;;5074071;28;19962;-76
2022/11/06 03:52:53;;;;;;;;;;;9.90;99.90;;;;;;5075263;28;19916;-75
2022/11/06 03:55:22;;;;;;;;;;;9.90;99.90;;;;;;5073960;28;19965;-75
2022/11/06 03:57:51;;;;;;;;;;;9.90;99.90;;;;;;5075662;28;19919;-77
2022/11/06 04:00:19;;;;;;;;;;;9.90;99.90;;;;;;5074894;28;20320;-76
2022/11/06 04:02:51;;;;;;;;;;;9.90;99.90;;;;;;5075067;28;20204;-76
2022/11/06 04:05:19;;;;;;;;;;;9.90;99.90;;;;;;5073894;28;20319;-75
2022/11/06 04:16:01;;;;;;;;;;;10.00;99.90;;;;;;5074472;28;19930;-76
2022/11/06 04:18:27;;;;;;;;;;;10.00;99.90;;;;;;5074272;28;20007;-76
2022/11/06 04:26:34;;;;;;;;;;;10.00;99.90;;;;;;5073102;28;19966;-76
2022/11/06 04:26:36;;;;;;;;;;;10.00;99.90;;;;;;5066486;28;19912;-76
2022/11/06 04:29:17;;;;;;;;;;;10.00;99.90;;;;;;5103060;28;20003;-76
2022/11/06 04:31:50;;;;;;;;;;;10.00;99.90;;;;;;5067815;28;20361;-75
2022/11/06 04:34:34;;;;;;;;;;;10.10;99.90;;;;;;5061707;28;19924;-76
2022/11/06 04:37:07;;;;;;;;;;;10.10;99.90;;;;;;5068704;28;19912;-75
2022/11/06 04:39:33;;;;;;;;;;;10.10;99.90;;;;;;5063725;28;19921;-75
2022/11/06 04:42:04;;;;;;;;;;;10.10;99.90;;;;;;5066304;28;20216;-76
2022/11/06 04:44:56;;;;;;;;;;;10.00;99.90;;;;;;5064280;28;20598;-76
2022/11/06 04:47:22;;;;;;;;;;;10.10;99.90;;;;;;5068423;28;19912;-76
2022/11/06 04:49:50;;;;;;;;;;;10.10;99.90;;;;;;5060472;28;20224;-75
2022/11/06 04:52:17;;;;;;;;;;;10.10;99.90;;;;;;5059161;28;19916;-75
2022/11/06 04:54:44;;;;;;;;;;;10.10;99.90;;;;;;5058423;28;19920;-74
2022/11/06 04:57:10;;;;;;;;;;;10.10;99.90;;;;;;5061385;28;19912;-75
2022/11/06 04:59:36;;;;;;;;;;;10.10;99.90;;;;;;5064550;28;19921;-75
2022/11/06 05:02:02;;;;;;;;;;;10.10;99.90;;;;;;5059463;28;19936;-75
2022/11/06 05:04:27;;;;;;;;;;;10.20;99.90;;;;;;5057665;28;20223;-76
2022/11/06 05:06:53;;;;;;;;;;;10.20;99.90;;;;;;5058303;28;19912;-75
2022/11/06 05:09:19;;;;;;;;;;;10.20;99.90;;;;;;5073837;28;19919;-76
2022/11/06 05:11:45;;;;;;;;;;;10.20;99.90;;;;;;5070114;28;20296;-76
2022/11/06 05:14:10;;;;;;;;;;;10.20;99.90;;;;;;5073499;28;19956;-76
2022/11/06 05:16:36;;;;;;;;;;;10.20;99.90;;;;;;5071825;28;19917;-75
2022/11/06 05:19:02;;;;;;;;;;;10.20;99.90;;;;;;5069940;28;19923;-75
2022/11/06 05:24:12;;;;;;;;;;;10.30;99.90;;;;;;5070807;28;19983;-76
2022/11/06 05:26:37;;;;;;;;;;;10.30;99.90;;;;;;5074037;28;19913;-76
2022/11/06 05:29:03;;;;;;;;;;;10.30;99.90;;;;;;5073866;28;20383;-76
2022/11/06 05:31:29;;;;;;;;;;;10.30;99.90;;;;;;5072706;28;19924;-75
2022/11/06 05:33:54;;;;;;;;;;;10.30;99.90;;;;;;5073545;28;19935;-76
2022/11/06 05:36:20;;;;;;;;;;;10.30;99.90;;;;;;5072176;28;19924;-76
2022/11/06 05:38:45;;;;;;;;;;;10.30;99.90;;;;;;5067117;28;19921;-76
2022/11/06 05:41:11;;;;;;;;;;;10.30;99.90;;;;;;5067821;28;19959;-76
2022/11/06 05:43:36;;;;;;;;;;;10.30;99.90;;;;;;5051011;28;19917;-76
2022/11/06 05:46:02;;;;;;;;;;;10.20;99.90;;;;;;5070323;28;19913;-76
2022/11/06 05:48:28;;;;;;;;;;;10.20;99.90;;;;;;5054656;28;19996;-75
2022/11/06 05:50:59;;;;;;;;;;;10.20;99.90;;;;;;5064251;28;19944;-77
2022/11/06 05:53:24;;;;;;;;;;;10.20;99.90;;;;;;5059045;28;19920;-78
2022/11/06 05:55:50;;;;;;;;;;;10.20;99.90;;;;;;5061260;28;19916;-79
2022/11/06 05:58:15;;;;;;;;;;;10.20;99.90;;;;;;5043694;28;19923;-80
2022/11/06 06:00:41;;;;;;;;;;;10.10;99.90;;;;;;5041370;28;19920;-77
2022/11/06 06:03:07;;;;;;;;;;;10.10;99.90;;;;;;5041218;28;19920;-77
2022/11/06 06:05:33;;;;;;;;;;;10.10;99.90;;;;;;5055618;28;19912;-80
2022/11/06 06:07:58;;;;;;;;;;;10.10;99.90;;;;;;5045578;28;19919;-77
2022/11/06 06:10:24;;;;;;;;;;;10.00;99.90;;;;;;5060470;28;20215;-79
2022/11/06 06:12:50;;;;;;;;;;;10.00;99.90;;;;;;5047502;28;20310;-76
2022/11/06 06:15:16;;;;;;;;;;;10.10;99.90;;;;;;5055814;28;19931;-77
2022/11/06 06:17:41;;;;;;;;;;;10.10;99.90;;;;;;5052121;28;19917;-77
2022/11/06 06:20:07;;;;;;;;;;;10.00;99.90;;;;;;5038697;28;20420;-79
2022/11/06 06:22:33;;;;;;;;;;;10.00;99.90;;;;;;5071620;28;20246;-77
2022/11/06 06:24:59;;;;;;;;;;;10.00;99.90;;;;;;5067129;28;19923;-77
2022/11/06 06:27:26;;;;;;;;;;;10.00;99.90;;;;;;5044015;28;19951;-77
2022/11/06 06:29:52;;;;;;;;;;;10.00;99.90;;;;;;5056833;28;20002;-76
2022/11/06 06:32:17;;;;;;;;;;;10.00;99.90;;;;;;5061717;28;20012;-77
2022/11/06 06:34:43;;;;;;;;;;;10.00;99.90;;;;;;5036567;28;19913;-76
2022/11/06 06:37:09;;;;;;;;;;;10.00;99.90;;;;;;5060816;28;19934;-76
2022/11/06 06:39:34;;;;;;;;;;;10.00;99.90;;;;;;5062611;28;19947;-76
2022/11/06 06:42:00;;;;;;;;;;;10.00;99.90;;;;;;5070796;28;20221;-75
2022/11/06 06:44:25;;;;;;;;;;;10.00;99.90;;;;;;5073886;28;20326;-76
2022/11/06 06:46:51;;;;;;;;;;;10.00;99.90;;;;;;5071282;28;19923;-77
2022/11/06 06:49:16;;;;;;;;;;;10.00;99.90;;;;;;5072890;28;19912;-75
2022/11/06 06:51:42;;;;;;;;;;;10.00;99.90;;;;;;5071366;28;19920;-76
2022/11/06 06:54:08;;;;;;;;;;;9.90;99.90;;;;;;5072370;28;19917;-82
2022/11/06 06:56:33;;;;;;;;;;;10.00;99.90;;;;;;5075293;28;20023;-74
2022/11/06 06:58:59;;;;;;;;;;;10.00;99.90;;;;;;5076601;28;19942;-79
2022/11/06 07:01:24;;;;;;;;;;;10.00;99.90;;;;;;5077652;28;19948;-76
2022/11/06 07:03:50;;;;;;;;;;;10.00;99.90;;;;;;5076647;28;19916;-75
2022/11/06 07:06:17;;;;;;;;;;;9.90;99.90;;;;;;5077463;28;19912;-75
2022/11/06 07:08:42;;;;;;;;;;;9.90;99.90;;;;;;5076885;28;19955;-75
2022/11/06 07:11:09;;;;;;;;;;;9.90;99.90;;;;;;5074951;28;19993;-75
2022/11/06 07:13:35;;;;;;;;;;;9.90;99.90;;;;;;5071152;28;20315;-75
2022/11/06 07:16:08;;;;;;;;;;;9.90;99.90;;;;;;5076748;28;19999;-76
2022/11/06 07:18:34;;;;;;;;;;;10.00;99.90;;;;;;5073184;28;19909;-76
2022/11/06 07:20:59;;;;;;;;;;;10.00;99.90;;;;;;5075615;28;19919;-76
2022/11/06 07:23:25;;;;;;;;;;;10.00;99.90;;;;;;5077270;28;19916;-75
2022/11/06 07:25:52;;;;;;;;;;;10.00;99.90;;;;;;5075672;28;20003;-76
2022/11/06 07:28:18;;;;;;;;;;;10.00;99.90;;;;;;5077297;28;19913;-76
2022/11/06 07:30:43;;;;;;;;;;;10.10;99.90;;;;;;5071981;28;20350;-76
2022/11/06 07:33:09;;;;;;;;;;;10.10;99.90;;;;;;5070351;28;19913;-75
2022/11/06 07:35:35;;;;;;;;;;;10.10;99.90;;;;;;5050336;28;19926;-75
2022/11/06 07:38:05;;;;;;;;;;;10.10;99.90;;;;;;5072081;28;19921;-75
2022/11/06 07:40:32;;;;;;;;;;;10.10;99.90;;;;;;5067784;28;19924;-77
2022/11/06 07:43:07;;;;;;;;;;;10.10;99.90;;;;;;5070867;28;19912;-75
2022/11/06 07:45:33;;;;;;;;;;;10.10;99.90;;;;;;5074018;28;20181;-75
2022/11/06 07:47:59;;;;;;;;;;;10.10;99.90;;;;;;5071615;28;19923;-75
2022/11/06 07:50:25;;;;;;;;;;;10.20;99.90;;;;;;5073842;28;19940;-75
2022/11/06 07:52:51;;;;;;;;;;;10.20;99.90;;;;;;5072118;28;20381;-75
2022/11/06 07:55:16;;;;;;;;;;;10.20;99.90;;;;;;5075156;28;19909;-75
2022/11/06 07:57:42;;;;;;;;;;;10.30;99.90;;;;;;5075324;28;20283;-75
2022/11/06 08:00:08;;;;;;;;;;;10.30;99.90;;;;;;5075247;28;20004;-76
2022/11/06 08:02:34;;;;;;;;;;;10.30;99.90;;;;;;5074924;28;19913;-75
2022/11/06 08:05:00;;;;;;;;;;;10.40;99.90;;;;;;5074332;28;20258;-77
2022/11/06 08:07:25;;;;;;;;;;;10.50;99.90;;;;;;5071826;28;19923;-76
2022/11/06 08:09:51;;;;;;;;;;;10.60;99.90;;;;;;5073734;28;19938;-75
2022/11/06 08:12:17;;;;;;;;;;;10.70;99.90;;;;;;5073316;28;19912;-76
2022/11/06 08:14:42;;;;;;;;;;;10.80;99.90;;;;;;5073417;28;19912;-75
2022/11/06 08:17:08;;;;;;;;;;;10.80;99.90;;;;;;5071458;28;19913;-75
2022/11/06 08:19:33;;;;;;;;;;;10.90;99.90;;;;;;5069288;28;20066;-75
2022/11/06 08:21:59;;;;;;;;;;;10.90;99.90;;;;;;5072311;28;20299;-75
2022/11/06 08:24:25;;;;;;;;;;;10.90;99.90;;;;;;5071768;28;19920;-75
2022/11/06 08:26:50;;;;;;;;;;;10.90;99.90;;;;;;5071183;28;19920;-76
2022/11/06 08:29:16;;;;;;;;;;;10.80;99.90;;;;;;5073568;28;19916;-75
2022/11/06 08:31:45;;;;;;;;;;;10.80;99.90;;;;;;5074363;28;19920;-76
2022/11/06 08:34:11;;;;;;;;;;;10.90;99.90;;;;;;5075587;28;20002;-74
2022/11/06 08:36:44;;;;;;;;;;;10.80;99.90;;;;;;5063236;28;19912;-76
2022/11/06 08:39:10;;;;;;;;;;;10.90;99.90;;;;;;5065610;28;19920;-79
2022/11/06 08:41:37;;;;;;;;;;;10.90;99.90;;;;;;5074269;28;19927;-75
2022/11/06 08:44:02;;;;;;;;;;;10.80;99.90;;;;;;5074424;28;20188;-76
2022/11/06 08:46:28;;;;;;;;;;;10.90;99.90;;;;;;5071995;28;19958;-75
2022/11/06 08:48:54;;;;;;;;;;;10.90;99.90;;;;;;5074382;28;19920;-76
2022/11/06 08:51:19;;;;;;;;;;;11.00;99.90;;;;;;5074947;28;19962;-75
2022/11/06 08:53:45;;;;;;;;;;;11.00;99.90;;;;;;5073777;28;19924;-75
2022/11/06 08:56:10;;;;;;;;;;;11.00;99.90;;;;;;5074416;28;19923;-76
2022/11/06 08:58:36;;;;;;;;;;;11.00;99.90;;;;;;5074812;28;20232;-75
2022/11/06 09:01:02;;;;;;;;;;;11.10;99.90;;;;;;5074251;28;19920;-75
2022/11/06 09:03:28;;;;;;;;;;;11.10;99.90;;;;;;5066743;28;19964;-75
2022/11/06 09:05:53;;;;;;;;;;;11.10;99.90;;;;;;5074209;28;20378;-76
2022/11/06 09:08:19;;;;;;;;;;;11.10;99.90;;;;;;5074037;28;19999;-75
2022/11/06 09:10:45;;;;;;;;;;;11.10;99.90;;;;;;5070926;28;19912;-75
2022/11/06 09:13:11;;;;;;;;;;;11.20;99.90;;;;;;5064892;28;20007;-75
2022/11/06 09:15:37;;;;;;;;;;;11.20;99.90;;;;;;5067640;28;19931;-75
2022/11/06 09:18:03;;;;;;;;;;;11.20;99.90;;;;;;5063850;28;20409;-75
2022/11/06 09:20:28;;;;;;;;;;;11.30;99.90;;;;;;5098234;27;20007;-75
2022/11/06 09:22:59;;;;;;;;;;;11.30;99.90;;;;;;5066905;28;20008;-75
2022/11/06 09:25:24;;;;;;;;;;;11.30;99.90;;;;;;5066111;28;20216;-76
2022/11/06 09:27:51;;;;;;;;;;;11.30;99.90;;;;;;5065601;28;19916;-75
2022/11/06 09:30:18;;;;;;;;;;;11.20;99.90;;;;;;5067078;28;19917;-75
2022/11/06 09:32:49;;;;;;;;;;;11.20;99.90;;;;;;5066111;28;19913;-76
2022/11/06 09:35:15;;;;;;;;;;;11.20;99.90;;;;;;5068096;28;19936;-76
2022/11/06 09:37:40;;;;;;;;;;;11.20;99.90;;;;;;5071613;28;20300;-75
2022/11/06 09:40:07;;;;;;;;;;;11.20;99.90;;;;;;5066234;28;19927;-75
2022/11/06 09:42:51;;;;;;;;;;;11.30;99.90;;;;;;5074418;28;19913;-75
2022/11/06 09:45:21;;;;;;;;;;;11.30;99.90;;;;;;5072299;28;19962;-75
2022/11/06 09:47:52;;;;;;;;;;;11.30;99.90;;;;;;5059849;28;19913;-76
2022/11/06 09:50:20;;;;;;;;;;;11.30;99.90;;;;;;5070241;28;19920;-75
2022/11/06 09:52:51;;;;;;;;;;;11.30;99.90;;;;;;5068892;28;19916;-75
2022/11/06 09:55:32;;;;;;;;;;;11.30;99.90;;;;;;5070933;28;19909;-75
2022/11/06 09:58:10;;;;;;;;;;;11.30;99.90;;;;;;5104900;28;19909;-75
2022/11/06 10:00:37;;;;;;;;;;;11.40;99.90;;;;;;5068981;28;20015;-75
2022/11/06 10:03:05;;;;;;;;;;;11.50;99.90;;;;;;5069181;28;19912;-76
2022/11/06 10:05:32;;;;;;;;;;;11.50;99.90;;;;;;5070810;28;20218;-74
2022/11/06 10:08:00;;;;;;;;;;;11.60;99.90;;;;;;5071599;28;19908;-75
2022/11/06 10:10:28;;;;;;;;;;;11.60;99.90;;;;;;5066745;28;19920;-76
2022/11/06 10:13:06;;;;;;;;;;;11.50;99.90;;;;;;5068590;28;20007;-74
2022/11/06 10:15:50;;;;;;;;;;;11.60;99.90;;;;;;5069240;28;19918;-75
2022/11/06 10:18:19;;;;;;;;;;;11.70;99.90;;;;;;5069123;28;19981;-74
2022/11/06 10:20:51;;;;;;;;;;;11.70;99.90;;;;;;5065295;28;19943;-74
2022/11/06 10:23:27;;;;;;;;;;;11.80;99.90;;;;;;5094364;28;19921;-75
2022/11/06 10:26:12;;;;;;;;;;;11.80;99.90;;;;;;5063966;28;20288;-74
2022/11/06 10:28:37;;;;;;;;;;;11.80;99.90;;;;;;5074176;28;19908;-75
2022/11/06 10:31:15;;;;;;;;;;;11.90;99.90;;;;;;5077477;28;19913;-77
2022/11/06 10:33:41;;;;;;;;;;;11.90;99.90;;;;;;5079078;28;20266;-73
2022/11/06 10:36:10;;;;;;;;;;;11.90;99.90;;;;;;5070724;28;20020;-72
2022/11/06 10:38:40;;;;;;;;;;;11.90;99.90;;;;;;5075106;28;19920;-72
2022/11/06 10:41:14;;;;;;;;;;;11.90;99.90;;;;;;5076914;28;19924;-75
2022/11/06 10:43:49;;;;;;;;;;;11.90;99.90;;;;;;5073086;28;19917;-74
2022/11/06 10:46:23;;;;;;;;;;;11.90;99.90;;;;;;5075890;28;19912;-74
2022/11/06 10:48:52;;;;;;;;;;;11.90;99.90;;;;;;5065818;28;19917;-74
2022/11/06 10:51:26;;;;;;;;;;;11.90;99.90;;;;;;5063543;28;19966;-74
2022/11/06 10:54:15;;;;;;;;;;;11.90;99.90;;;;;;5076570;28;19999;-75
2022/11/06 10:56:59;;;;;;;;;;;12.00;99.90;;;;;;5054120;28;19923;-74
2022/11/06 10:59:25;;;;;;;;;;;12.00;99.90;;;;;;5076434;28;20269;-74
2022/11/06 11:01:50;;;;;;;;;;;12.10;99.90;;;;;;5075821;28;19913;-74
2022/11/06 11:04:16;;;;;;;;;;;12.10;99.90;;;;;;5076191;28;20219;-75
2022/11/06 11:06:42;;;;;;;;;;;12.20;99.90;;;;;;5073755;28;19948;-75
2022/11/06 11:09:25;;;;;;;;;;;12.20;99.90;;;;;;5077325;28;19909;-80
2022/11/06 11:11:51;;;;;;;;;;;12.20;99.90;;;;;;5088505;28;19920;-74
2022/11/06 11:14:27;;;;;;;;;;;12.20;99.90;;;;;;5068724;28;19913;-74
2022/11/06 11:16:53;;;;;;;;;;;12.10;99.90;;;;;;5072772;28;20226;-74
2022/11/06 11:19:23;;;;;;;;;;;12.20;99.90;;;;;;5075251;28;19916;-74
2022/11/06 11:21:56;;;;;;;;;;;12.20;99.90;;;;;;5072124;28;19913;-74
2022/11/06 11:24:22;;;;;;;;;;;12.10;99.90;;;;;;5073331;28;19958;-74
2022/11/06 11:26:49;;;;;;;;;;;12.10;99.90;;;;;;5070732;28;19952;-74
2022/11/06 11:29:16;;;;;;;;;;;12.10;99.90;;;;;;5076883;28;19923;-74
2022/11/06 11:31:49;;;;;;;;;;;12.10;99.90;;;;;;5076407;28;20427;-74
2022/11/06 11:34:17;;;;;;;;;;;12.10;99.90;;;;;;5076039;28;20005;-75
2022/11/06 11:36:54;;;;;;;;;;;12.10;99.90;;;;;;5073276;28;20058;-75
2022/11/06 11:39:24;;;;;;;;;;;12.10;99.90;;;;;;5074676;28;19921;-80
2022/11/06 11:41:49;;;;;;;;;;;12.10;99.90;;;;;;5073773;28;19999;-74
2022/11/06 11:44:16;;;;;;;;;;;12.10;99.90;;;;;;5075620;28;20007;-74
2022/11/06 11:46:50;;;;;;;;;;;12.00;99.90;;;;;;5075404;28;19927;-74
2022/11/06 11:49:25;;;;;;;;;;;12.00;99.90;;;;;;5075391;28;19913;-74
2022/11/06 11:51:51;;;;;;;;;;;11.90;99.90;;;;;;5072551;28;20329;-74
2022/11/06 11:54:18;;;;;;;;;;;11.90;99.90;;;;;;5076046;28;19916;-73
2022/11/06 11:56:43;;;;;;;;;;;11.90;99.90;;;;;;5076540;28;19908;-74
2022/11/06 11:59:14;;;;;;;;;;;11.90;99.90;;;;;;5073356;28;19912;-74
2022/11/06 12:01:40;;;;;;;;;;;11.90;99.90;;;;;;5073443;28;19912;-74
2022/11/06 12:04:26;;;;;;;;;;;11.90;99.90;;;;;;5074122;28;20046;-75
2022/11/06 12:06:54;;;;;;;;;;;11.90;99.90;;;;;;5072326;28;19916;-74
2022/11/06 12:09:20;;;;;;;;;;;11.80;99.90;;;;;;5073716;28;19943;-74
2022/11/06 12:11:46;;;;;;;;;;;11.80;99.90;;;;;;5073796;28;19955;-78
2022/11/06 12:14:16;;;;;;;;;;;11.70;99.90;;;;;;5067671;28;20319;-75
2022/11/06 12:16:43;;;;;;;;;;;11.70;99.90;;;;;;5083943;28;19963;-75
2022/11/06 12:19:09;;;;;;;;;;;11.60;99.90;;;;;;5064948;28;19913;-74
2022/11/06 12:21:36;;;;;;;;;;;11.60;99.90;;;;;;5067570;28;19949;-74
2022/11/06 12:24:04;;;;;;;;;;;11.60;99.90;;;;;;5066628;28;19931;-75
2022/11/06 12:26:44;;;;;;;;;;;11.60;99.90;;;;;;5099619;28;20008;-73
2022/11/06 12:29:12;;;;;;;;;;;11.50;99.90;;;;;;5067041;28;20368;-73
2022/11/06 12:31:38;;;;;;;;;;;11.40;99.90;;;;;;5068160;28;19917;-75
2022/11/06 12:34:06;;;;;;;;;;;11.40;99.90;;;;;;5076203;28;19912;-74
2022/11/06 12:36:38;;;;;;;;;;;11.40;99.90;;;;;;5058605;28;19916;-74
2022/11/06 12:39:09;;;;;;;;;;;11.30;99.90;;;;;;5060346;28;19925;-74
2022/11/06 12:41:38;;;;;;;;;;;11.30;99.90;;;;;;5069254;28;19913;-74
2022/11/06 12:44:08;;;;;;;;;;;11.30;99.90;;;;;;5065795;28;19916;-73
2022/11/06 12:46:47;;;;;;;;;;;11.30;99.90;;;;;;5065423;28;20318;-74
2022/11/06 12:49:31;;;;;;;;;;;11.30;99.90;;;;;;5065490;28;19913;-74
2022/11/06 12:52:16;;;;;;;;;;;11.30;99.90;;;;;;5060415;28;19989;-74
2022/11/06 12:54:48;;;;;;;;;;;11.30;99.90;;;;;;5067371;28;19917;-74
2022/11/06 12:57:26;;;;;;;;;;;11.30;99.90;;;;;;5073912;28;19990;-73
2022/11/06 13:00:00;;;;;;;;;;;11.20;99.90;;;;;;5074235;28;20342;-74
2022/11/06 13:02:52;;;;;;;;;;;11.30;99.90;;;;;;5074180;28;20003;-74
2022/11/06 13:05:18;;;;;;;;;;;11.30;99.90;;;;;;5069933;28;20010;-74
2022/11/06 13:07:53;;;;;;;;;;;11.30;99.90;;;;;;5063632;28;20287;-74
2022/11/06 13:10:45;;;;;;;;;;;11.30;99.90;;;;;;5076419;28;19981;-80
2022/11/06 13:13:10;;;;;;;;;;;11.30;99.90;;;;;;5065779;28;19913;-73
2022/11/06 13:15:39;;;;;;;;;;;11.30;99.90;;;;;;5076364;28;19935;-73
2022/11/06 13:18:08;;;;;;;;;;;11.20;99.90;;;;;;5074535;28;20345;-75
2022/11/06 13:20:49;;;;;;;;;;;11.20;99.90;;;;;;5068411;28;19950;-73
2022/11/06 13:23:25;;;;;;;;;;;11.20;99.90;;;;;;5073497;28;19919;-74
2022/11/06 13:25:55;;;;;;;;;;;11.20;99.90;;;;;;5104936;28;20334;-74
2022/11/06 13:28:27;;;;;;;;;;;11.10;99.90;;;;;;5072294;28;19999;-73
2022/11/06 13:30:53;;;;;;;;;;;11.10;99.90;;;;;;5073806;28;19912;-74
2022/11/06 13:33:53;;;;;;;;;;;11.10;99.90;;;;;;5076243;28;19912;-75
2022/11/06 13:36:19;;;;;;;;;;;11.10;99.90;;;;;;5051867;28;20335;-79
2022/11/06 13:38:53;;;;;;;;;;;11.10;99.90;;;;;;5052088;28;20007;-75
2022/11/06 13:41:27;;;;;;;;;;;11.00;99.90;;;;;;5051681;28;19925;-76
2022/11/06 13:44:00;;;;;;;;;;;11.00;99.90;;;;;;5050875;28;19916;-75
2022/11/06 13:46:38;;;;;;;;;;;11.00;99.90;;;;;;5052000;28;19912;-75
2022/11/06 13:49:22;;;;;;;;;;;10.90;99.90;;;;;;5035572;28;20007;-75
2022/11/06 13:51:47;;;;;;;;;;;10.90;99.90;;;;;;5051827;28;20264;-77
2022/11/06 13:54:13;;;;;;;;;;;10.90;99.90;;;;;;5052651;28;19995;-79
2022/11/06 13:56:56;;;;;;;;;;;10.80;99.90;;;;;;5051182;28;19915;-76
2022/11/06 13:59:32;;;;;;;;;;;10.80;99.90;;;;;;5052041;28;20308;-76
2022/11/06 14:02:12;;;;;;;;;;;10.70;99.90;;;;;;5045313;28;19967;-75
2022/11/06 14:04:40;;;;;;;;;;;10.70;99.90;;;;;;5052323;28;19921;-75
2022/11/06 14:07:06;;;;;;;;;;;10.70;99.90;;;;;;5047067;28;19913;-75
2022/11/06 14:09:34;;;;;;;;;;;10.60;99.90;;;;;;5055417;28;20260;-75
2022/11/06 14:12:02;;;;;;;;;;;10.60;99.90;;;;;;5057224;28;19909;-74
2022/11/06 14:14:30;;;;;;;;;;;10.50;99.90;;;;;;5077769;28;19912;-75
2022/11/06 14:17:08;;;;;;;;;;;10.40;99.90;;;;;;5074910;28;19951;-74
2022/11/06 14:19:34;;;;;;;;;;;10.40;99.90;;;;;;5069275;28;19912;-75
2022/11/06 14:22:08;;;;;;;;;;;10.40;99.90;;;;;;5070575;28;20364;-75
2022/11/06 14:24:35;;;;;;;;;;;10.30;99.90;;;;;;5070818;28;19909;-74
2022/11/06 14:27:01;;;;;;;;;;;10.20;99.90;;;;;;5109167;28;20227;-75
2022/11/06 14:29:27;;;;;;;;;;;10.20;99.90;;;;;;5078890;28;20631;-74
2022/11/06 14:31:59;;;;;;;;;;;10.20;99.90;;;;;;5074974;28;19909;-74
2022/11/06 14:34:34;;;;;;;;;;;10.10;99.90;;;;;;5077391;28;19913;-74
2022/11/06 14:37:15;;;;;;;;;;;10.10;99.90;;;;;;5075983;28;20417;-75
2022/11/06 14:39:50;;;;;;;;;;;10.00;99.90;;;;;;5076121;28;19967;-79
2022/11/06 14:42:22;;;;;;;;;;;10.00;99.90;;;;;;5076774;28;19920;-80
2022/11/06 14:44:50;;;;;;;;;;;10.00;99.90;;;;;;5074611;28;20053;-75
2022/11/06 14:47:21;;;;;;;;;;;10.00;99.90;;;;;;5075284;28;19917;-74